Time;durP1;ratioP1;P1;durP2;ratioP2;P2;SDS_P1;SDS_P2;PMS_P1;PMS_P2;Temp;Humidity;BMP_temperature;BMP_pressure;BME280_temperature;BME280_humidity;BME280_pressure;Samples;Min_cycle;Max_cycle;Signal;HPM_P1;HPM_P2
2023/08/30 00:01:37;;;;;;;8.75;7.82;;;17.70;1.00;;;;;;5045469;28;20205;-79
2023/08/30 00:04:05;;;;;;;9.23;8.32;;;17.70;99.90;;;;;;5051986;28;20686;-79
2023/08/30 00:06:33;;;;;;;9.25;7.68;;;17.70;1.90;;;;;;5053243;28;20202;-79
2023/08/30 00:09:00;;;;;;;8.52;7.47;;;17.70;1.00;;;;;;5054691;28;20194;-79
2023/08/30 00:11:30;;;;;;;9.13;8.13;;;17.60;1.00;;;;;;5043738;28;20571;-79
2023/08/30 00:14:05;;;;;;;9.20;8.35;;;17.60;1.00;;;;;;5073567;28;20202;-79
2023/08/30 00:16:33;;;;;;;11.02;8.68;;;17.40;99.90;;;;;;5068203;28;20190;-79
2023/08/30 00:19:01;;;;;;;9.70;8.70;;;17.30;99.90;;;;;;5075402;28;20193;-79
2023/08/30 00:21:29;;;;;;;11.25;10.10;;;17.20;1.00;;;;;;5078872;28;20522;-79
2023/08/30 00:23:56;;;;;;;10.25;9.25;;;17.10;99.90;;;;;;5043795;28;20226;-79
2023/08/30 00:26:40;;;;;;;11.13;8.80;;;17.10;99.40;;;;;;5054552;28;20198;-79
2023/08/30 00:29:08;;;;;;;9.68;8.68;;;17.00;1.00;;;;;;5051617;28;20252;-79
2023/08/30 00:31:35;;;;;;;10.02;8.68;;;17.00;99.90;;;;;;5056996;28;20275;-79
2023/08/30 00:34:04;;;;;;;10.07;9.00;;;17.00;99.90;;;;;;5053647;28;20210;-79
2023/08/30 00:36:32;;;;;;;9.85;8.68;;;17.10;1.00;;;;;;5054765;28;20201;-79
2023/08/30 00:38:59;;;;;;;9.27;8.32;;;17.00;1.00;;;;;;5072694;28;20198;-79
2023/08/30 00:41:26;;;;;;;9.50;8.63;;;16.90;99.90;;;;;;5056141;28;20205;-79
2023/08/30 00:43:54;;;;;;;10.80;8.68;;;16.60;81.90;;;;;;5051730;28;20218;-79
2023/08/30 00:46:21;;;;;;;10.82;8.50;;;16.60;99.90;;;;;;5045847;28;20201;-79
2023/08/30 00:48:49;;;;;;;9.50;8.60;;;16.50;1.00;;;;;;5063700;28;20198;-79
2023/08/30 00:51:18;;;;;;;8.68;7.85;;;16.60;1.00;;;;;;5052920;28;20201;-79
2023/08/30 00:53:46;;;;;;;10.27;9.25;;;16.60;1.00;;;;;;5047390;28;20217;-79
2023/08/30 00:56:13;;;;;;;10.80;9.25;;;16.70;99.90;;;;;;5049498;28;20210;-79
2023/08/30 00:58:41;;;;;;;10.55;9.43;;;16.80;44.90;;;;;;5076152;28;20189;-79
2023/08/30 01:01:09;;;;;;;10.27;9.27;;;16.90;1.00;;;;;;5039490;28;20195;-79
2023/08/30 01:03:37;;;;;;;13.15;9.52;;;16.90;99.90;;;;;;5071305;28;20190;-79
2023/08/30 01:06:05;;;;;;;11.07;9.75;;;17.00;99.90;;;;;;5051609;28;20216;-79
2023/08/30 01:09:00;;;;;;;11.50;9.20;;;17.00;99.90;;;;;;5046108;28;20193;-79
2023/08/30 01:11:49;;;;;;;11.23;10.13;;;17.00;99.90;;;;;;5042947;28;20194;-79
2023/08/30 01:14:22;;;;;;;11.57;10.38;;;17.00;99.90;;;;;;5064337;28;20233;-79
2023/08/30 01:16:49;;;;;;;12.38;11.13;;;16.60;1.00;;;;;;5067475;28;20220;-79
2023/08/30 01:19:32;;;;;;;11.85;10.75;;;16.30;1.00;;;;;;5060301;28;20194;-79
2023/08/30 01:22:04;;;;;;;13.52;11.80;;;16.10;1.00;;;;;;5046499;28;20586;-78
2023/08/30 01:24:42;;;;;;;13.70;12.07;;;16.00;1.00;;;;;;5047646;28;20221;-79
2023/08/30 01:27:12;;;;;;;15.43;11.90;;;16.00;1.00;;;;;;5055924;28;20196;-79
2023/08/30 01:29:45;;;;;;;13.32;11.75;;;16.10;1.00;;;;;;5050540;28;20201;-79
2023/08/30 01:32:13;;;;;;;12.95;10.77;;;16.20;99.90;;;;;;5070421;28;20194;-79
2023/08/30 01:34:43;;;;;;;11.93;10.73;;;16.40;1.00;;;;;;5051192;28;20225;-79
2023/08/30 01:37:13;;;;;;;11.50;10.30;;;16.50;99.90;;;;;;5044986;28;20199;-79
2023/08/30 01:39:42;;;;;;;11.80;10.57;;;16.50;1.00;;;;;;5042580;28;20201;-78
2023/08/30 01:42:14;;;;;;;12.80;11.05;;;16.50;99.90;;;;;;5048210;28;20190;-79
2023/08/30 01:44:44;;;;;;;12.75;11.55;;;16.40;8.10;;;;;;5041264;28;20218;-79
2023/08/30 01:47:13;;;;;;;14.15;12.82;;;16.20;99.90;;;;;;5037286;28;20213;-79
2023/08/30 01:49:40;;;;;;;13.18;11.82;;;16.30;1.00;;;;;;5037623;28;20198;-79
2023/08/30 01:52:10;;;;;;;15.48;12.23;;;16.40;1.00;;;;;;5041357;28;20198;-79
2023/08/30 01:54:39;;;;;;;17.42;12.82;;;16.10;99.90;;;;;;5050867;28;20220;-79
2023/08/30 01:57:07;;;;;;;14.43;11.75;;;15.90;99.90;;;;;;5048604;28;20656;-79
2023/08/30 01:59:36;;;;;;;12.98;11.27;;;15.90;1.00;;;;;;5051081;28;20203;-79
2023/08/30 02:02:04;;;;;;;13.80;12.20;;;16.10;1.00;;;;;;5050446;28;20200;-79
2023/08/30 02:04:32;;;;;;;13.10;11.77;;;16.10;1.00;;;;;;5068936;28;20582;-79
2023/08/30 02:07:03;;;;;;;15.27;12.38;;;16.00;1.00;;;;;;5048904;28;20204;-79
2023/08/30 02:10:13;;;;;;;15.18;12.00;;;15.90;1.00;;;;;;5069051;28;20193;-79
2023/08/30 02:12:45;;;;;;;13.50;11.48;;;15.90;8.60;;;;;;5042523;28;20202;-79
2023/08/30 02:15:15;;;;;;;16.25;12.95;;;15.90;1.00;;;;;;5043865;28;20218;-79
2023/08/30 02:17:43;;;;;;;14.68;13.13;;;15.80;1.00;;;;;;5051551;28;20204;-79
2023/08/30 02:20:11;;;;;;;16.77;12.30;;;15.80;99.90;;;;;;5046435;28;20205;-79
2023/08/30 02:22:39;;;;;;;12.73;11.35;;;15.90;99.90;;;;;;5062456;28;20193;-79
2023/08/30 02:25:09;;;;;;;13.50;11.43;;;16.00;1.00;;;;;;5050259;28;20214;-79
2023/08/30 02:27:37;;;;;;;13.13;11.88;;;16.00;1.00;;;;;;5066571;28;20186;-79
2023/08/30 02:30:05;;;;;;;15.68;11.48;;;15.90;1.00;;;;;;5058030;28;20686;-79
2023/08/30 02:32:35;;;;;;;13.05;11.65;;;15.90;1.00;;;;;;5067020;28;20251;-78
2023/08/30 02:35:03;;;;;;;17.05;12.13;;;15.90;99.90;;;;;;5044544;28;20568;-79
2023/08/30 02:37:31;;;;;;;15.10;11.13;;;15.90;99.90;;;;;;5036928;28;20685;-79
2023/08/30 02:39:58;;;;;;;12.60;11.32;;;15.90;99.90;;;;;;5045308;28;20193;-79
2023/08/30 02:42:26;;;;;;;12.88;11.55;;;15.80;99.90;;;;;;5051449;28;20208;-79
2023/08/30 02:44:55;;;;;;;15.10;12.90;;;15.60;99.90;;;;;;5061631;28;20595;-79
2023/08/30 02:47:22;;;;;;;15.90;13.00;;;15.60;1.00;;;;;;5047709;28;20194;-79
2023/08/30 02:49:51;;;;;;;14.93;13.07;;;15.60;1.00;;;;;;5057804;28;20200;-79
2023/08/30 02:52:19;;;;;;;14.98;12.85;;;15.50;1.00;;;;;;5060327;28;20189;-79
2023/08/30 02:54:46;;;;;;;16.27;14.30;;;15.40;1.00;;;;;;5058427;28;20233;-79
2023/08/30 02:57:14;;;;;;;14.98;13.38;;;15.40;1.00;;;;;;5064383;28;20202;-79
2023/08/30 02:59:41;;;;;;;15.18;12.95;;;15.60;73.80;;;;;;5069489;28;20201;-79
2023/08/30 03:02:09;;;;;;;13.30;11.90;;;15.60;1.00;;;;;;5056104;28;20256;-79
2023/08/30 03:04:38;;;;;;;15.07;13.13;;;15.70;1.00;;;;;;5072689;28;20217;-79
2023/08/30 03:07:07;;;;;;;18.45;13.15;;;15.80;99.90;;;;;;5051294;28;20225;-79
2023/08/30 03:09:34;;;;;;;18.88;13.52;;;15.90;99.90;;;;;;5048500;28;20200;-79
2023/08/30 03:12:02;;;;;;;16.08;13.52;;;15.90;1.00;;;;;;5055939;28;20189;-79
2023/08/30 03:14:30;;;;;;;17.02;13.38;;;15.80;1.00;;;;;;5051555;28;20229;-79
2023/08/30 03:16:57;;;;;;;16.38;14.10;;;15.80;1.00;;;;;;5053649;28;20194;-79
2023/08/30 03:19:27;;;;;;;18.80;15.30;;;15.80;99.90;;;;;;5050815;28;20214;-79
2023/08/30 03:21:54;;;;;;;19.48;16.80;;;15.70;99.90;;;;;;5045056;28;20199;-80
2023/08/30 03:24:23;;;;;;;19.50;17.38;;;15.60;99.90;;;;;;5050682;28;20219;-79
2023/08/30 03:26:50;;;;;;;19.10;16.27;;;15.60;1.00;;;;;;5048386;28;20205;-79
2023/08/30 03:29:20;;;;;;;21.08;18.40;;;15.50;1.00;;;;;;5059410;28;20217;-79
2023/08/30 03:31:48;;;;;;;21.10;17.25;;;15.40;19.00;;;;;;5050861;28;20195;-79
2023/08/30 03:34:16;;;;;;;22.00;18.30;;;15.40;99.90;;;;;;5053232;28;20371;-79
2023/08/30 03:36:44;;;;;;;20.50;17.25;;;15.50;19.90;;;;;;5052057;28;20209;-79
2023/08/30 03:39:12;;;;;;;21.88;18.10;;;15.40;64.00;;;;;;5063490;28;20659;-79
2023/08/30 03:41:41;;;;;;;20.63;17.25;;;15.40;80.60;;;;;;5076128;28;20190;-79
2023/08/30 03:44:08;;;;;;;20.25;17.20;;;15.50;91.20;;;;;;5055014;28;20242;-79
2023/08/30 03:46:36;;;;;;;20.17;16.80;;;15.60;17.20;;;;;;5073770;28;20213;-78
2023/08/30 03:49:03;;;;;;;22.75;19.15;;;15.70;1.00;;;;;;5058791;28;20202;-79
2023/08/30 03:51:31;;;;;;;21.58;18.73;;;15.60;1.00;;;;;;5041154;28;20195;-78
2023/08/30 03:54:20;;;;;;;21.70;19.08;;;15.40;1.00;;;;;;5051435;28;20224;-79
2023/08/30 03:56:49;;;;;;;21.77;18.35;;;15.20;99.90;;;;;;5046822;28;20198;-79
2023/08/30 03:59:16;;;;;;;20.25;17.60;;;15.20;99.90;;;;;;5057349;28;20566;-79
2023/08/30 04:01:45;;;;;;;19.85;17.05;;;15.30;99.90;;;;;;5047309;28;20205;-79
2023/08/30 04:04:13;;;;;;;20.92;18.15;;;15.50;99.90;;;;;;5052234;28;20692;-79
2023/08/30 04:06:40;;;;;;;25.30;19.40;;;15.50;99.90;;;;;;5038705;28;20229;-79
2023/08/30 04:09:10;;;;;;;21.02;18.40;;;15.50;1.00;;;;;;5057965;28;20221;-79
2023/08/30 04:11:38;;;;;;;20.38;18.10;;;15.50;99.90;;;;;;5055177;28;20197;-79
2023/08/30 04:14:07;;;;;;;21.70;18.02;;;15.60;1.00;;;;;;5054876;28;20210;-79
2023/08/30 04:16:36;;;;;;;19.33;17.23;;;15.60;1.00;;;;;;5049928;28;20198;-79
2023/08/30 04:19:03;;;;;;;22.30;17.38;;;15.50;1.00;;;;;;5041575;28;20198;-79
2023/08/30 04:21:31;;;;;;;19.52;17.42;;;15.40;1.00;;;;;;5068466;28;20189;-79
2023/08/30 04:23:58;;;;;;;22.60;19.40;;;15.40;1.00;;;;;;5059315;28;20221;-79
2023/08/30 04:26:26;;;;;;;21.27;18.83;;;15.40;1.00;;;;;;5062427;28;20217;-79
2023/08/30 04:28:53;;;;;;;19.83;17.38;;;15.40;21.20;;;;;;5072319;28;20213;-79
2023/08/30 04:31:22;;;;;;;24.48;18.52;;;15.30;1.00;;;;;;5070980;28;20198;-79
2023/08/30 04:33:52;;;;;;;21.60;18.60;;;15.30;99.90;;;;;;5061605;28;20218;-79
2023/08/30 04:36:21;;;;;;;19.77;17.70;;;15.30;99.90;;;;;;5051367;28;20194;-79
2023/08/30 04:38:49;;;;;;;20.40;17.35;;;15.20;1.00;;;;;;5047653;28;20207;-78
2023/08/30 04:41:20;;;;;;;21.90;17.92;;;15.10;73.00;;;;;;5065305;28;20186;-79
2023/08/30 04:43:48;;;;;;;21.17;18.98;;;15.20;99.90;;;;;;5045000;28;20225;-79
2023/08/30 04:46:15;;;;;;;20.63;18.48;;;15.30;99.90;;;;;;5063370;28;20214;-79
2023/08/30 04:48:44;;;;;;;26.70;19.27;;;15.40;46.50;;;;;;5054361;28;20193;-79
2023/08/30 04:51:13;;;;;;;22.88;19.95;;;15.30;1.00;;;;;;5057069;28;20193;-79
2023/08/30 04:53:42;;;;;;;22.27;19.63;;;15.20;1.00;;;;;;5055764;28;20232;-79
2023/08/30 04:56:52;;;;;;;20.90;18.63;;;15.10;99.00;;;;;;5055544;28;20186;-79
2023/08/30 04:59:19;;;;;;;29.90;21.05;;;15.00;99.90;;;;;;5054567;28;20208;-78
2023/08/30 05:01:49;;;;;;;21.45;19.15;;;14.90;99.90;;;;;;5047400;28;20205;-79
2023/08/30 05:04:19;;;;;;;24.48;20.45;;;14.90;99.90;;;;;;5032663;28;20218;-79
2023/08/30 05:06:47;;;;;;;26.02;21.63;;;15.00;99.90;;;;;;5045797;28;20214;-79
2023/08/30 05:09:15;;;;;;;24.98;21.00;;;15.10;99.90;;;;;;5046308;28;20202;-80
2023/08/30 05:11:46;;;;;;;23.58;20.70;;;15.10;99.90;;;;;;5038768;28;20206;-82
2023/08/30 05:14:19;;;;;;;25.67;20.70;;;15.10;99.90;;;;;;5044158;28;20230;-82
2023/08/30 05:16:50;;;;;;;26.38;21.00;;;15.10;99.90;;;;;;5046945;28;20665;-81
2023/08/30 05:19:19;;;;;;;17.13;14.02;;;15.40;99.90;;;;;;5045750;28;20203;-82
2023/08/30 05:21:46;;;;;;;26.08;21.10;;;15.90;99.90;;;;;;5044085;28;20209;-81
2023/08/30 05:24:14;;;;;;;23.17;20.25;;;15.90;1.00;;;;;;5050941;28;20224;-80
2023/08/30 05:26:42;;;;;;;25.10;20.98;;;15.50;99.90;;;;;;5054063;28;20248;-82
2023/08/30 05:29:09;;;;;;;26.15;22.08;;;15.20;1.00;;;;;;5053174;28;20560;-82
2023/08/30 05:32:10;;;;;;;28.25;21.83;;;15.20;82.10;;;;;;5050935;28;20210;-82
2023/08/30 05:34:38;;;;;;;23.65;21.15;;;15.20;99.90;;;;;;5067340;28;20726;-82
2023/08/30 05:37:29;;;;;;;24.92;22.10;;;15.10;99.90;;;;;;5058192;28;20209;-82
2023/08/30 05:40:00;;;;;;;26.60;22.20;;;15.30;99.90;;;;;;5049050;28;20201;-83
2023/08/30 05:42:27;;;;;;;25.73;22.02;;;15.10;99.90;;;;;;5046967;28;20195;-82
2023/08/30 05:44:57;;;;;;;27.08;22.90;;;15.00;99.90;;;;;;5039856;28;20232;-80
2023/08/30 05:47:31;;;;;;;28.30;23.63;;;15.20;99.90;;;;;;5051688;28;20225;-82
2023/08/30 05:49:59;;;;;;;28.50;23.00;;;15.10;99.90;;;;;;5042430;28;20205;-83
2023/08/30 05:52:27;;;;;;;28.02;23.63;;;15.10;99.90;;;;;;5034116;28;20207;-83
2023/08/30 05:54:54;;;;;;;26.05;21.45;;;15.40;99.90;;;;;;5065322;28;20222;-81
2023/08/30 05:57:23;;;;;;;29.45;23.02;;;15.40;99.90;;;;;;5048718;28;20201;-83
2023/08/30 05:59:51;;;;;;;24.00;20.30;;;15.50;48.00;;;;;;5045286;28;20206;-82
2023/08/30 06:02:18;;;;;;;26.63;21.50;;;15.80;1.00;;;;;;5033041;28;20205;-82
2023/08/30 06:04:49;;;;;;;25.77;19.63;;;15.80;1.00;;;;;;5052814;28;20214;-82
2023/08/30 06:07:18;;;;;;;25.65;20.15;;;15.80;1.00;;;;;;5049709;28;20584;-82
2023/08/30 06:09:45;;;;;;;26.45;20.63;;;15.80;1.00;;;;;;5040886;28;20203;-82
2023/08/30 06:12:13;;;;;;;24.60;20.55;;;15.70;99.90;;;;;;5055149;28;20198;-82
2023/08/30 06:14:40;;;;;;;24.58;20.25;;;15.60;1.00;;;;;;5056063;28;20218;-81
2023/08/30 06:17:07;;;;;;;24.42;21.05;;;15.60;1.00;;;;;;5049934;28;20222;-82
2023/08/30 06:19:35;;;;;;;25.20;20.40;;;15.60;1.00;;;;;;5058143;28;20202;-82
2023/08/30 06:22:02;;;;;;;22.98;20.48;;;15.70;1.00;;;;;;5059664;28;20193;-82
2023/08/30 06:24:31;;;;;;;25.80;20.90;;;15.60;1.00;;;;;;5061871;28;20229;-82
2023/08/30 06:26:59;;;;;;;27.20;22.08;;;15.50;1.00;;;;;;5042583;28;20213;-82
2023/08/30 06:29:27;;;;;;;26.13;22.00;;;15.50;99.90;;;;;;5041561;28;20575;-82
2023/08/30 06:31:54;;;;;;;28.33;21.92;;;15.50;99.90;;;;;;5054169;28;20202;-82
2023/08/30 06:34:22;;;;;;;28.17;22.13;;;15.60;99.90;;;;;;5060657;28;20590;-82
2023/08/30 06:36:49;;;;;;;27.65;22.65;;;15.60;99.90;;;;;;5061946;28;20194;-82
2023/08/30 06:39:18;;;;;;;26.98;22.77;;;15.70;99.90;;;;;;5058802;28;20208;-82
2023/08/30 06:41:47;;;;;;;28.10;23.67;;;15.80;99.90;;;;;;5074380;28;20197;-82
2023/08/30 06:44:16;;;;;;;28.48;23.10;;;15.90;27.20;;;;;;5056511;28;20218;-82
2023/08/30 06:46:44;;;;;;;30.20;23.95;;;15.80;74.70;;;;;;5060718;28;20210;-82
2023/08/30 06:49:11;;;;;;;28.27;23.77;;;15.90;1.00;;;;;;5068544;28;20256;-82
2023/08/30 06:51:39;;;;;;;29.13;23.40;;;15.90;1.00;;;;;;5057035;28;20723;-82
2023/08/30 06:54:06;;;;;;;30.50;24.15;;;15.90;1.00;;;;;;5049921;28;20229;-82
2023/08/30 06:56:34;;;;;;;30.90;25.00;;;15.90;1.00;;;;;;5075240;28;20190;-82
2023/08/30 06:59:09;;;;;;;32.88;26.77;;;16.00;1.00;;;;;;5068335;28;20209;-82
2023/08/30 07:01:36;;;;;;;31.25;25.98;;;16.10;1.00;;;;;;5052728;28;20224;-82
2023/08/30 07:04:05;;;;;;;32.42;26.52;;;16.10;1.00;;;;;;5075530;28;20214;-81
2023/08/30 07:06:32;;;;;;;30.92;25.48;;;16.10;99.90;;;;;;5050117;28;20209;-82
2023/08/30 07:09:03;;;;;;;29.50;24.25;;;16.20;99.90;;;;;;5061291;28;20226;-82
2023/08/30 07:11:30;;;;;;;26.02;21.95;;;16.20;99.90;;;;;;5075973;28;20205;-80
2023/08/30 07:14:03;;;;;;;26.83;21.75;;;16.30;99.90;;;;;;5067105;28;20225;-82
2023/08/30 07:16:32;;;;;;;26.17;22.38;;;16.40;99.90;;;;;;5064326;28;20201;-81
2023/08/30 07:19:01;;;;;;;24.92;20.25;;;16.60;99.90;;;;;;5051643;28;20217;-82
2023/08/30 07:21:29;;;;;;;20.38;18.08;;;16.60;1.00;;;;;;5052212;28;20205;-81
2023/08/30 07:23:56;;;;;;;19.33;17.15;;;16.60;1.00;;;;;;5065933;28;20210;-80
2023/08/30 07:26:24;;;;;;;21.08;17.27;;;16.80;1.00;;;;;;5045585;28;20208;-83
2023/08/30 07:28:51;;;;;;;20.20;17.67;;;16.90;1.00;;;;;;5044879;28;20583;-79
2023/08/30 07:31:18;;;;;;;19.98;16.88;;;16.90;1.00;;;;;;5044345;28;20202;-83
2023/08/30 07:33:47;;;;;;;18.35;16.45;;;16.90;1.00;;;;;;5049606;28;20586;-80
2023/08/30 07:36:15;;;;;;;20.50;17.73;;;17.00;1.00;;;;;;5046978;28;20198;-81
2023/08/30 07:38:42;;;;;;;19.70;16.42;;;17.00;1.00;;;;;;5045015;28;20559;-80
2023/08/30 07:41:10;;;;;;;19.35;15.88;;;17.00;99.90;;;;;;5055122;28;20209;-80
2023/08/30 07:43:38;;;;;;;18.50;15.88;;;17.00;35.20;;;;;;5051639;28;20201;-78
2023/08/30 07:46:05;;;;;;;16.42;14.68;;;17.00;1.00;;;;;;5046572;28;20206;-82
2023/08/30 07:48:33;;;;;;;17.48;14.77;;;17.10;1.00;;;;;;5044313;28;20574;-81
2023/08/30 07:51:01;;;;;;;18.10;14.82;;;17.10;1.00;;;;;;5053389;28;20193;-83
2023/08/30 07:53:36;;;;;;;19.20;14.52;;;17.10;1.00;;;;;;5061381;28;20200;-88
2023/08/30 07:56:04;;;;;;;17.75;14.25;;;17.50;99.90;;;;;;5074979;28;20264;-86
2023/08/30 07:58:32;;;;;;;14.43;12.85;;;17.80;5.40;;;;;;5054241;28;20651;-83
2023/08/30 08:00:59;;;;;;;16.42;12.77;;;17.70;1.00;;;;;;5045492;28;20202;-84
2023/08/30 08:03:26;;;;;;;16.85;12.75;;;17.60;1.00;;;;;;5050780;28;20221;-83
2023/08/30 08:06:00;;;;;;;15.70;12.60;;;17.60;1.00;;;;;;5051636;28;20198;-84
2023/08/30 08:08:28;;;;;;;13.27;11.85;;;17.70;99.90;;;;;;5046580;28;20217;-84
2023/08/30 08:10:55;;;;;;;13.48;11.18;;;17.70;1.00;;;;;;5050514;28;20201;-84
2023/08/30 08:13:23;;;;;;;12.27;10.98;;;17.80;99.90;;;;;;5056839;28;20186;-84
2023/08/30 08:15:50;;;;;;;12.00;10.45;;;17.80;99.90;;;;;;5054044;28;20671;-85
2023/08/30 08:18:18;;;;;;;12.68;10.32;;;17.80;99.90;;;;;;5053917;28;20276;-84
2023/08/30 08:20:45;;;;;;;11.38;10.18;;;17.90;99.90;;;;;;5053132;28;20202;-84
2023/08/30 08:23:14;;;;;;;11.18;9.88;;;18.00;1.00;;;;;;5053925;28;20598;-84
2023/08/30 08:25:42;;;;;;;13.27;8.73;;;17.90;1.00;;;;;;5061275;28;20213;-84
2023/08/30 08:28:09;;;;;;;12.15;9.18;;;17.90;1.00;;;;;;5036242;28;20225;-85
2023/08/30 08:30:51;;;;;;;10.25;9.18;;;18.00;1.00;;;;;;5061558;28;20194;-84
2023/08/30 08:33:20;;;;;;;11.60;8.95;;;18.10;1.00;;;;;;5052951;28;20197;-85
2023/08/30 08:35:51;;;;;;;10.23;8.88;;;18.10;1.00;;;;;;5048306;28;20228;-87
2023/08/30 08:38:20;;;;;;;11.00;8.18;;;18.10;1.00;;;;;;5045126;28;20205;-83
2023/08/30 08:40:50;;;;;;;8.10;7.30;;;18.30;99.90;;;;;;5058604;28;20554;-82
2023/08/30 08:43:18;;;;;;;7.75;6.95;;;18.20;99.90;;;;;;5035081;28;20194;-82
2023/08/30 08:45:48;;;;;;;8.18;7.18;;;18.40;99.90;;;;;;5047239;28;20233;-82
2023/08/30 08:48:15;;;;;;;7.50;6.70;;;18.40;99.90;;;;;;5042832;28;20219;-83
2023/08/30 08:50:46;;;;;;;7.25;6.45;;;18.40;99.90;;;;;;5048732;28;20225;-83
2023/08/30 08:53:14;;;;;;;6.43;5.68;;;18.50;99.90;;;;;;5051805;28;20198;-83
2023/08/30 08:55:45;;;;;;;7.40;5.90;;;18.30;99.90;;;;;;5035417;28;20238;-82
2023/08/30 08:58:13;;;;;;;6.13;5.10;;;18.30;99.90;;;;;;5040537;28;20194;-83
2023/08/30 09:00:41;;;;;;;5.95;5.13;;;18.40;99.90;;;;;;5066051;28;20202;-83
2023/08/30 09:03:09;;;;;;;6.28;5.10;;;18.40;99.90;;;;;;5046048;28;20194;-82
2023/08/30 09:05:39;;;;;;;5.10;4.60;;;18.40;99.90;;;;;;5049027;28;20217;-82
2023/08/30 09:08:16;;;;;;;6.07;4.82;;;18.50;99.90;;;;;;5053742;28;20206;-82
2023/08/30 09:10:47;;;;;;;7.22;5.22;;;18.50;99.90;;;;;;5073127;28;20208;-82
2023/08/30 09:13:26;;;;;;;5.75;5.20;;;18.40;99.90;;;;;;5074296;28;20188;-82
2023/08/30 09:15:55;;;;;;;6.47;5.90;;;18.30;99.90;;;;;;5056435;28;20205;-80
2023/08/30 09:18:27;;;;;;;7.38;5.25;;;18.30;99.90;;;;;;5045214;28;20194;-80
2023/08/30 09:20:54;;;;;;;7.85;5.95;;;18.30;99.90;;;;;;5035913;28;20190;-80
2023/08/30 09:23:24;;;;;;;7.60;5.70;;;18.30;99.90;;;;;;5061426;28;20205;-81
2023/08/30 09:25:56;;;;;;;7.15;6.00;;;18.30;99.90;;;;;;5050675;28;20667;-80
2023/08/30 09:28:24;;;;;;;9.73;5.93;;;18.20;99.90;;;;;;5042429;28;20228;-80
2023/08/30 09:30:54;;;;;;;7.47;5.85;;;18.20;99.90;;;;;;5046520;28;20194;-80
2023/08/30 09:33:22;;;;;;;5.55;5.05;;;18.40;99.90;;;;;;5043951;28;20201;-80
2023/08/30 09:36:11;;;;;;;9.00;6.57;;;18.50;99.90;;;;;;5049123;28;20201;-80
2023/08/30 09:38:58;;;;;;;;;;;;;;;;;;;;;
2023/08/30 09:41:27;;;;;;;9.63;6.80;;;18.40;99.90;;;;;;5064754;28;20208;-80
2023/08/30 09:43:58;;;;;;;8.73;6.20;;;18.40;99.90;;;;;;5062498;28;20214;-79
2023/08/30 09:46:32;;;;;;;7.45;5.80;;;18.50;99.90;;;;;;5067461;28;20193;-79
2023/08/30 09:49:01;;;;;;;7.13;5.78;;;18.60;99.90;;;;;;5062296;28;20210;-79
2023/08/30 09:51:35;;;;;;;7.32;6.15;;;18.50;99.90;;;;;;5045196;28;20201;-79
2023/08/30 09:54:05;;;;;;;7.47;5.97;;;18.50;99.90;;;;;;5047241;28;20229;-79
2023/08/30 09:56:37;;;;;;;7.82;6.50;;;18.60;99.90;;;;;;5058574;28;20201;-79
2023/08/30 09:59:05;;;;;;;7.57;6.32;;;18.50;99.90;;;;;;5042648;28;20186;-79
2023/08/30 10:01:33;;;;;;;9.23;6.50;;;18.40;99.90;;;;;;5067107;28;20201;-79
2023/08/30 10:04:03;;;;;;;7.30;6.53;;;18.30;99.90;;;;;;5046300;28;20218;-79
2023/08/30 10:06:34;;;;;;;6.75;6.07;;;18.30;99.90;;;;;;5047234;28;20198;-79
2023/08/30 10:09:04;;;;;;;8.95;5.80;;;18.30;99.90;;;;;;5050378;28;20214;-82
2023/08/30 10:11:36;;;;;;;7.35;6.53;;;18.20;99.90;;;;;;5070481;28;20193;-81
2023/08/30 10:14:05;;;;;;;9.73;6.97;;;18.00;99.90;;;;;;5060885;28;20215;-80
2023/08/30 10:16:41;;;;;;;7.32;6.57;;;17.90;1.00;;;;;;5062273;28;20200;-80
2023/08/30 10:19:24;;;;;;;7.40;5.95;;;17.60;99.90;;;;;;5045493;28;20223;-82
2023/08/30 10:22:00;;;;;;;6.97;5.90;;;17.20;99.90;;;;;;5051421;28;20213;-84
2023/08/30 10:24:29;;;;;;;6.85;6.00;;;17.10;1.00;;;;;;5049132;28;20232;-84
2023/08/30 10:26:59;;;;;;;6.50;5.85;;;17.20;14.60;;;;;;5054638;28;20201;-81
2023/08/30 10:29:28;;;;;;;7.45;6.50;;;16.80;99.90;;;;;;5049905;28;20233;-82
2023/08/30 10:31:56;;;;;;;6.82;6.07;;;16.80;1.00;;;;;;5056862;28;20186;-83
2023/08/30 10:34:24;;;;;;;9.07;6.78;;;16.80;3.90;;;;;;5053429;28;20221;-81
2023/08/30 10:37:02;;;;;;;8.15;6.80;;;16.90;99.90;;;;;;5052433;28;20198;-81
2023/08/30 10:39:36;;;;;;;7.60;6.90;;;16.60;1.00;;;;;;5050781;28;20200;-81
2023/08/30 10:42:10;;;;;;;8.32;7.47;;;16.50;99.90;;;;;;5054555;28;20208;-81
2023/08/30 10:44:49;;;;;;;8.43;7.72;;;16.40;99.90;;;;;;5052806;28;20217;-81
2023/08/30 10:47:20;;;;;;;9.52;8.30;;;16.50;99.90;;;;;;5072180;28;20189;-82
2023/08/30 10:49:49;;;;;;;8.80;7.82;;;16.40;99.90;;;;;;5052278;28;20214;-81
2023/08/30 10:52:16;;;;;;;8.57;7.68;;;16.40;99.90;;;;;;5053856;23;20218;-78
2023/08/30 10:54:44;;;;;;;10.07;9.10;;;16.40;99.90;;;;;;5038145;28;20206;-78
2023/08/30 10:57:20;;;;;;;10.93;9.77;;;16.50;99.90;;;;;;5034262;28;20198;-78
2023/08/30 11:00:09;;;;;;;10.52;9.50;;;16.20;99.90;;;;;;5042305;28;20547;-78
2023/08/30 11:02:37;;;;;;;11.18;10.07;;;16.40;99.90;;;;;;5040479;28;20233;-78
2023/08/30 11:05:07;;;;;;;12.85;11.55;;;16.30;99.90;;;;;;5037357;28;20726;-78
2023/08/30 11:07:35;;;;;;;11.98;10.77;;;16.20;99.90;;;;;;5057011;28;20311;-78
2023/08/30 11:10:05;;;;;;;12.20;10.90;;;16.30;99.90;;;;;;5040701;28;20215;-78
2023/08/30 11:12:34;;;;;;;12.50;10.68;;;16.30;99.90;;;;;;5037469;28;20214;-79
2023/08/30 11:15:01;;;;;;;11.80;10.70;;;16.30;99.90;;;;;;5049165;28;20209;-78
2023/08/30 11:17:29;;;;;;;11.68;10.55;;;16.20;99.90;;;;;;5060012;28;20204;-78
2023/08/30 11:20:07;;;;;;;14.00;12.55;;;16.20;99.90;;;;;;5037883;28;20640;-78
2023/08/30 11:22:36;;;;;;;13.75;12.27;;;16.10;99.90;;;;;;5032953;28;20245;-78
2023/08/30 11:25:04;;;;;;;13.90;12.60;;;16.10;99.90;;;;;;5041230;28;20209;-78
2023/08/30 11:27:33;;;;;;;16.80;13.25;;;16.10;99.90;;;;;;5029211;28;20614;-78
2023/08/30 11:30:02;;;;;;;16.42;13.85;;;16.00;99.90;;;;;;5050892;28;20206;-78
2023/08/30 11:32:32;;;;;;;16.92;14.25;;;16.00;99.90;;;;;;5046653;28;20541;-78
2023/08/30 11:35:00;;;;;;;15.93;14.23;;;15.90;99.90;;;;;;5060348;28;20217;-78
2023/08/30 11:37:27;;;;;;;16.27;14.00;;;16.00;99.90;;;;;;5047811;28;20208;-78
2023/08/30 11:39:56;;;;;;;17.10;15.30;;;16.00;99.90;;;;;;5052944;28;20201;-79
2023/08/30 11:42:32;;;;;;;16.52;14.85;;;16.00;99.90;;;;;;5041463;28;20222;-78
2023/08/30 11:45:01;;;;;;;15.57;13.93;;;16.10;99.90;;;;;;5045967;28;20201;-78
2023/08/30 11:47:28;;;;;;;15.05;13.20;;;16.00;99.90;;;;;;5043074;28;20205;-79
2023/08/30 11:49:57;;;;;;;16.10;14.38;;;16.00;99.90;;;;;;5063702;28;20221;-78
2023/08/30 11:52:27;;;;;;;16.10;13.73;;;16.10;99.90;;;;;;5068219;28;20230;-78
2023/08/30 11:54:55;;;;;;;16.83;13.50;;;16.10;99.90;;;;;;5067779;28;20194;-78
2023/08/30 11:57:23;;;;;;;14.00;12.25;;;16.20;99.90;;;;;;5066851;28;20224;-80
2023/08/30 11:59:51;;;;;;;13.00;11.70;;;16.20;99.90;;;;;;5068869;28;20194;-79
2023/08/30 12:02:21;;;;;;;13.40;11.85;;;16.20;99.90;;;;;;5053210;28;20218;-79
2023/08/30 12:04:48;;;;;;;11.98;10.75;;;16.20;99.90;;;;;;5073527;28;20537;-79
2023/08/30 12:07:23;;;;;;;13.27;11.88;;;16.20;99.90;;;;;;5050356;28;20194;-78
2023/08/30 12:09:51;;;;;;;11.75;10.45;;;16.10;99.90;;;;;;5041380;28;20214;-80
2023/08/30 12:12:18;;;;;;;9.30;8.02;;;16.20;99.90;;;;;;5038963;28;20221;-78
2023/08/30 12:14:46;;;;;;;7.72;6.80;;;16.10;99.90;;;;;;5045766;28;20209;-78
2023/08/30 12:17:14;;;;;;;8.13;7.32;;;15.90;99.90;;;;;;5036758;28;20195;-80
2023/08/30 12:19:42;;;;;;;8.60;6.60;;;15.90;99.90;;;;;;5036065;28;20195;-79
2023/08/30 12:22:10;;;;;;;7.43;6.72;;;15.90;99.90;;;;;;5039855;28;20222;-78
2023/08/30 12:24:42;;;;;;;6.72;6.03;;;15.90;99.90;;;;;;5046429;28;20202;-78
2023/08/30 12:27:10;;;;;;;8.43;6.30;;;15.90;99.90;;;;;;5037309;28;20206;-77
2023/08/30 12:29:59;;;;;;;5.93;5.30;;;16.00;99.90;;;;;;5032214;28;20233;-78
2023/08/30 12:32:28;;;;;;;6.13;5.30;;;16.00;99.90;;;;;;5037147;28;20214;-78
2023/08/30 12:34:55;;;;;;;5.15;4.65;;;15.90;99.90;;;;;;5032552;28;20534;-78
2023/08/30 12:37:22;;;;;;;5.68;5.13;;;16.00;99.90;;;;;;5033565;28;20212;-78
2023/08/30 12:39:50;;;;;;;5.53;5.03;;;15.90;99.90;;;;;;5038250;28;20206;-78
2023/08/30 12:42:43;;;;;;;5.90;5.40;;;16.00;99.90;;;;;;5024573;28;20218;-78
2023/08/30 12:45:11;;;;;;;5.60;4.25;;;16.20;99.90;;;;;;5038365;28;20194;-79
2023/08/30 12:47:40;;;;;;;4.88;4.28;;;16.20;99.90;;;;;;5032836;28;20610;-79
2023/08/30 12:50:09;;;;;;;5.43;4.53;;;16.20;99.90;;;;;;5036987;28;20215;-78
2023/08/30 12:52:46;;;;;;;5.47;4.97;;;16.20;99.90;;;;;;5052990;28;20222;-78